sensor_id;sensor_type;location;lat;lon;timestamp;temperature;humidity
51982;DHT22;37998;53.416;6.730;2024-03-22T00:01:52;9.60;99.90
51982;DHT22;37998;53.416;6.730;2024-03-22T00:04:18;9.50;99.90
51982;DHT22;37998;53.416;6.730;2024-03-22T00:06:46;9.60;99.90
51982;DHT22;37998;53.416;6.730;2024-03-22T00:09:14;9.70;99.90
51982;DHT22;37998;53.416;6.730;2024-03-22T00:11:41;9.60;99.90
51982;DHT22;37998;53.416;6.730;2024-03-22T00:14:08;9.60;99.90
51982;DHT22;37998;53.416;6.730;2024-03-22T00:16:34;9.60;99.90
51982;DHT22;37998;53.416;6.730;2024-03-22T00:19:00;9.60;99.90
51982;DHT22;37998;53.416;6.730;2024-03-22T00:21:26;9.60;99.90
51982;DHT22;37998;53.416;6.730;2024-03-22T00:23:51;9.60;99.90
51982;DHT22;37998;53.416;6.730;2024-03-22T00:26:17;9.70;99.90
51982;DHT22;37998;53.416;6.730;2024-03-22T00:28:43;9.60;99.90
51982;DHT22;37998;53.416;6.730;2024-03-22T00:31:09;9.70;99.90
51982;DHT22;37998;53.416;6.730;2024-03-22T00:33:35;9.70;99.90
51982;DHT22;37998;53.416;6.730;2024-03-22T00:36:02;9.70;99.90
51982;DHT22;37998;53.416;6.730;2024-03-22T00:38:28;9.60;99.90
51982;DHT22;37998;53.416;6.730;2024-03-22T00:40:54;9.70;99.90
51982;DHT22;37998;53.416;6.730;2024-03-22T00:43:20;9.70;99.90
51982;DHT22;37998;53.416;6.730;2024-03-22T00:45:47;9.70;99.90
51982;DHT22;37998;53.416;6.730;2024-03-22T00:48:13;9.60;99.90
51982;DHT22;37998;53.416;6.730;2024-03-22T00:50:39;9.60;99.90
51982;DHT22;37998;53.416;6.730;2024-03-22T00:53:05;9.70;99.90
51982;DHT22;37998;53.416;6.730;2024-03-22T00:55:33;9.70;99.90
51982;DHT22;37998;53.416;6.730;2024-03-22T00:58:00;9.70;99.90
51982;DHT22;37998;53.416;6.730;2024-03-22T01:00:26;9.70;99.90
51982;DHT22;37998;53.416;6.730;2024-03-22T01:02:52;9.70;99.90
51982;DHT22;37998;53.416;6.730;2024-03-22T01:05:18;9.70;99.90
51982;DHT22;37998;53.416;6.730;2024-03-22T01:07:44;9.70;99.90
51982;DHT22;37998;53.416;6.730;2024-03-22T01:10:13;9.70;99.90
51982;DHT22;37998;53.416;6.730;2024-03-22T01:12:39;9.80;99.90
51982;DHT22;37998;53.416;6.730;2024-03-22T01:15:06;9.70;99.90
51982;DHT22;37998;53.416;6.730;2024-03-22T01:17:33;9.80;99.90
51982;DHT22;37998;53.416;6.730;2024-03-22T01:19:59;9.80;99.90
51982;DHT22;37998;53.416;6.730;2024-03-22T01:22:25;9.80;99.90
51982;DHT22;37998;53.416;6.730;2024-03-22T01:24:51;9.80;99.90
51982;DHT22;37998;53.416;6.730;2024-03-22T01:27:17;9.90;99.90
51982;DHT22;37998;53.416;6.730;2024-03-22T01:29:43;9.90;99.90
51982;DHT22;37998;53.416;6.730;2024-03-22T01:32:09;9.90;99.90
51982;DHT22;37998;53.416;6.730;2024-03-22T01:34:35;9.90;99.90
51982;DHT22;37998;53.416;6.730;2024-03-22T01:37:01;9.90;99.90
51982;DHT22;37998;53.416;6.730;2024-03-22T01:39:28;10.00;99.90
51982;DHT22;37998;53.416;6.730;2024-03-22T01:41:54;10.00;99.90
51982;DHT22;37998;53.416;6.730;2024-03-22T01:44:27;10.00;99.90
51982;DHT22;37998;53.416;6.730;2024-03-22T01:46:53;10.00;99.90
51982;DHT22;37998;53.416;6.730;2024-03-22T01:49:21;10.00;99.90
51982;DHT22;37998;53.416;6.730;2024-03-22T01:51:47;10.00;99.90
51982;DHT22;37998;53.416;6.730;2024-03-22T01:54:15;10.00;99.90
51982;DHT22;37998;53.416;6.730;2024-03-22T01:56:42;10.00;99.90
51982;DHT22;37998;53.416;6.730;2024-03-22T01:59:08;10.00;99.90
51982;DHT22;37998;53.416;6.730;2024-03-22T02:01:35;10.00;99.90
51982;DHT22;37998;53.416;6.730;2024-03-22T02:04:02;10.00;99.90
51982;DHT22;37998;53.416;6.730;2024-03-22T02:06:28;10.00;99.90
51982;DHT22;37998;53.416;6.730;2024-03-22T02:08:54;10.10;99.90
51982;DHT22;37998;53.416;6.730;2024-03-22T02:11:20;10.10;99.90
51982;DHT22;37998;53.416;6.730;2024-03-22T02:13:46;10.10;99.90
51982;DHT22;37998;53.416;6.730;2024-03-22T02:16:12;10.00;99.90
51982;DHT22;37998;53.416;6.730;2024-03-22T02:18:38;10.10;99.90
51982;DHT22;37998;53.416;6.730;2024-03-22T02:21:04;10.10;99.90
51982;DHT22;37998;53.416;6.730;2024-03-22T02:23:37;10.10;99.90
51982;DHT22;37998;53.416;6.730;2024-03-22T02:26:04;10.10;99.90
51982;DHT22;37998;53.416;6.730;2024-03-22T02:28:30;10.10;99.90
51982;DHT22;37998;53.416;6.730;2024-03-22T02:30:58;10.10;99.90
51982;DHT22;37998;53.416;6.730;2024-03-22T02:33:24;10.10;99.90
51982;DHT22;37998;53.416;6.730;2024-03-22T02:35:50;10.10;99.90
51982;DHT22;37998;53.416;6.730;2024-03-22T02:38:17;10.10;99.90
51982;DHT22;37998;53.416;6.730;2024-03-22T02:40:43;10.20;99.90
51982;DHT22;37998;53.416;6.730;2024-03-22T02:43:10;10.10;99.90
51982;DHT22;37998;53.416;6.730;2024-03-22T02:45:36;10.20;99.90
51982;DHT22;37998;53.416;6.730;2024-03-22T02:48:02;10.20;99.90
51982;DHT22;37998;53.416;6.730;2024-03-22T02:50:28;10.20;99.90
51982;DHT22;37998;53.416;6.730;2024-03-22T02:52:54;10.30;99.90
51982;DHT22;37998;53.416;6.730;2024-03-22T02:55:19;10.20;99.90
51982;DHT22;37998;53.416;6.730;2024-03-22T02:57:45;10.20;99.90
51982;DHT22;37998;53.416;6.730;2024-03-22T03:00:11;10.30;99.90
51982;DHT22;37998;53.416;6.730;2024-03-22T03:02:38;10.30;99.90
51982;DHT22;37998;53.416;6.730;2024-03-22T03:05:04;10.30;99.90
51982;DHT22;37998;53.416;6.730;2024-03-22T03:07:30;10.30;99.90
51982;DHT22;37998;53.416;6.730;2024-03-22T03:09:56;10.30;99.90
51982;DHT22;37998;53.416;6.730;2024-03-22T03:12:22;10.30;99.90
51982;DHT22;37998;53.416;6.730;2024-03-22T03:14:48;10.30;99.90
51982;DHT22;37998;53.416;6.730;2024-03-22T03:17:13;10.30;99.90
51982;DHT22;37998;53.416;6.730;2024-03-22T03:19:39;10.30;99.90
51982;DHT22;37998;53.416;6.730;2024-03-22T03:22:06;10.30;99.90
51982;DHT22;37998;53.416;6.730;2024-03-22T03:24:31;10.40;99.90
51982;DHT22;37998;53.416;6.730;2024-03-22T03:26:57;10.30;99.90
51982;DHT22;37998;53.416;6.730;2024-03-22T03:29:23;10.30;99.90
51982;DHT22;37998;53.416;6.730;2024-03-22T03:31:49;10.40;99.90
51982;DHT22;37998;53.416;6.730;2024-03-22T03:34:15;10.40;99.90
51982;DHT22;37998;53.416;6.730;2024-03-22T03:36:41;10.40;99.90
51982;DHT22;37998;53.416;6.730;2024-03-22T03:39:07;10.40;99.90
51982;DHT22;37998;53.416;6.730;2024-03-22T03:41:33;10.40;99.90
51982;DHT22;37998;53.416;6.730;2024-03-22T03:43:59;10.40;99.90
51982;DHT22;37998;53.416;6.730;2024-03-22T03:46:25;10.40;99.90
51982;DHT22;37998;53.416;6.730;2024-03-22T03:48:51;10.40;99.90
51982;DHT22;37998;53.416;6.730;2024-03-22T03:51:17;10.40;99.90
51982;DHT22;37998;53.416;6.730;2024-03-22T03:53:43;10.40;99.90
51982;DHT22;37998;53.416;6.730;2024-03-22T03:56:09;10.40;99.90
51982;DHT22;37998;53.416;6.730;2024-03-22T03:58:34;10.40;99.90
51982;DHT22;37998;53.416;6.730;2024-03-22T04:01:05;10.40;99.90
51982;DHT22;37998;53.416;6.730;2024-03-22T04:03:31;10.40;99.90
51982;DHT22;37998;53.416;6.730;2024-03-22T04:05:58;10.40;99.90
51982;DHT22;37998;53.416;6.730;2024-03-22T04:08:27;10.40;99.90
51982;DHT22;37998;53.416;6.730;2024-03-22T04:10:53;10.40;99.90
51982;DHT22;37998;53.416;6.730;2024-03-22T04:13:23;10.40;99.90
51982;DHT22;37998;53.416;6.730;2024-03-22T04:15:49;10.40;99.90
51982;DHT22;37998;53.416;6.730;2024-03-22T04:18:15;10.40;99.90
51982;DHT22;37998;53.416;6.730;2024-03-22T04:20:41;10.40;99.90
51982;DHT22;37998;53.416;6.730;2024-03-22T04:23:07;10.40;99.90
51982;DHT22;37998;53.416;6.730;2024-03-22T04:25:33;10.40;99.90
51982;DHT22;37998;53.416;6.730;2024-03-22T04:27:59;10.40;99.90
51982;DHT22;37998;53.416;6.730;2024-03-22T04:30:24;10.40;99.90
51982;DHT22;37998;53.416;6.730;2024-03-22T04:32:50;10.40;99.90
51982;DHT22;37998;53.416;6.730;2024-03-22T04:35:16;10.40;99.90
51982;DHT22;37998;53.416;6.730;2024-03-22T04:37:42;10.40;99.90
51982;DHT22;37998;53.416;6.730;2024-03-22T04:40:11;10.40;99.90
51982;DHT22;37998;53.416;6.730;2024-03-22T04:42:38;10.40;99.90
51982;DHT22;37998;53.416;6.730;2024-03-22T04:45:04;10.30;99.90
51982;DHT22;37998;53.416;6.730;2024-03-22T04:47:30;10.40;99.90
51982;DHT22;37998;53.416;6.730;2024-03-22T04:49:57;10.30;99.90
51982;DHT22;37998;53.416;6.730;2024-03-22T04:52:22;10.30;99.90
51982;DHT22;37998;53.416;6.730;2024-03-22T04:54:48;10.30;99.90
51982;DHT22;37998;53.416;6.730;2024-03-22T04:57:15;10.30;99.90
51982;DHT22;37998;53.416;6.730;2024-03-22T04:59:41;10.30;99.90
51982;DHT22;37998;53.416;6.730;2024-03-22T05:02:07;10.30;99.90
51982;DHT22;37998;53.416;6.730;2024-03-22T05:04:33;10.30;99.90
51982;DHT22;37998;53.416;6.730;2024-03-22T05:07:03;10.30;99.90
51982;DHT22;37998;53.416;6.730;2024-03-22T05:09:29;10.30;99.90
51982;DHT22;37998;53.416;6.730;2024-03-22T05:11:55;10.30;99.90
51982;DHT22;37998;53.416;6.730;2024-03-22T05:14:21;10.30;99.90
51982;DHT22;37998;53.416;6.730;2024-03-22T05:16:47;10.30;99.90
51982;DHT22;37998;53.416;6.730;2024-03-22T05:19:13;10.30;99.90
51982;DHT22;37998;53.416;6.730;2024-03-22T05:21:39;10.30;99.90
51982;DHT22;37998;53.416;6.730;2024-03-22T05:24:05;10.30;99.90
51982;DHT22;37998;53.416;6.730;2024-03-22T05:26:31;10.30;99.90
51982;DHT22;37998;53.416;6.730;2024-03-22T05:29:01;10.30;99.90
51982;DHT22;37998;53.416;6.730;2024-03-22T05:31:28;10.30;99.90
51982;DHT22;37998;53.416;6.730;2024-03-22T05:34:01;10.30;99.90
51982;DHT22;37998;53.416;6.730;2024-03-22T05:36:27;10.30;99.90
51982;DHT22;37998;53.416;6.730;2024-03-22T05:38:53;10.30;99.90
51982;DHT22;37998;53.416;6.730;2024-03-22T05:41:18;10.30;99.90
51982;DHT22;37998;53.416;6.730;2024-03-22T05:43:44;10.30;99.90
51982;DHT22;37998;53.416;6.730;2024-03-22T05:46:10;10.30;99.90
51982;DHT22;37998;53.416;6.730;2024-03-22T05:48:39;10.20;99.90
51982;DHT22;37998;53.416;6.730;2024-03-22T05:51:06;10.30;99.90
51982;DHT22;37998;53.416;6.730;2024-03-22T05:53:32;10.30;99.90
51982;DHT22;37998;53.416;6.730;2024-03-22T05:55:58;10.20;99.90
51982;DHT22;37998;53.416;6.730;2024-03-22T05:58:23;10.20;99.90
51982;DHT22;37998;53.416;6.730;2024-03-22T06:00:49;10.20;99.90
51982;DHT22;37998;53.416;6.730;2024-03-22T06:03:15;10.20;99.90
51982;DHT22;37998;53.416;6.730;2024-03-22T06:05:44;10.20;99.90
51982;DHT22;37998;53.416;6.730;2024-03-22T06:08:10;10.20;99.90
51982;DHT22;37998;53.416;6.730;2024-03-22T06:10:36;10.20;99.90
51982;DHT22;37998;53.416;6.730;2024-03-22T06:13:02;10.20;99.90
51982;DHT22;37998;53.416;6.730;2024-03-22T06:15:28;10.20;99.90
51982;DHT22;37998;53.416;6.730;2024-03-22T06:17:54;10.20;99.90
51982;DHT22;37998;53.416;6.730;2024-03-22T06:20:20;10.20;99.90
51982;DHT22;37998;53.416;6.730;2024-03-22T06:22:46;10.10;99.90
51982;DHT22;37998;53.416;6.730;2024-03-22T06:25:12;10.10;99.90
51982;DHT22;37998;53.416;6.730;2024-03-22T06:27:38;10.10;99.90
51982;DHT22;37998;53.416;6.730;2024-03-22T06:30:04;10.10;99.90
51982;DHT22;37998;53.416;6.730;2024-03-22T06:32:30;10.10;99.90
51982;DHT22;37998;53.416;6.730;2024-03-22T06:34:56;10.10;99.90
51982;DHT22;37998;53.416;6.730;2024-03-22T06:37:22;10.10;99.90
51982;DHT22;37998;53.416;6.730;2024-03-22T06:39:48;10.10;99.90
51982;DHT22;37998;53.416;6.730;2024-03-22T06:42:14;10.10;99.90
51982;DHT22;37998;53.416;6.730;2024-03-22T06:44:40;10.00;99.90
51982;DHT22;37998;53.416;6.730;2024-03-22T06:47:06;10.00;99.90
51982;DHT22;37998;53.416;6.730;2024-03-22T06:49:32;10.00;99.90
51982;DHT22;37998;53.416;6.730;2024-03-22T06:51:58;10.00;99.90
51982;DHT22;37998;53.416;6.730;2024-03-22T06:54:25;10.00;99.90
51982;DHT22;37998;53.416;6.730;2024-03-22T06:56:52;10.00;99.90
51982;DHT22;37998;53.416;6.730;2024-03-22T06:59:18;9.90;99.90
51982;DHT22;37998;53.416;6.730;2024-03-22T07:01:44;9.90;99.90
51982;DHT22;37998;53.416;6.730;2024-03-22T07:04:10;10.00;99.90
51982;DHT22;37998;53.416;6.730;2024-03-22T07:06:38;10.00;99.90
51982;DHT22;37998;53.416;6.730;2024-03-22T07:09:07;9.90;99.90
51982;DHT22;37998;53.416;6.730;2024-03-22T07:11:33;9.90;99.90
51982;DHT22;37998;53.416;6.730;2024-03-22T07:13:59;9.90;99.90
51982;DHT22;37998;53.416;6.730;2024-03-22T07:16:25;9.90;99.90
51982;DHT22;37998;53.416;6.730;2024-03-22T07:18:53;9.90;99.90
51982;DHT22;37998;53.416;6.730;2024-03-22T07:21:19;9.90;99.90
51982;DHT22;37998;53.416;6.730;2024-03-22T07:23:45;9.90;99.90
51982;DHT22;37998;53.416;6.730;2024-03-22T07:26:11;9.90;99.90
51982;DHT22;37998;53.416;6.730;2024-03-22T07:28:37;9.90;99.90
51982;DHT22;37998;53.416;6.730;2024-03-22T07:31:03;9.90;99.90
51982;DHT22;37998;53.416;6.730;2024-03-22T07:33:30;9.90;99.90
51982;DHT22;37998;53.416;6.730;2024-03-22T07:36:00;9.90;99.90
51982;DHT22;37998;53.416;6.730;2024-03-22T07:38:29;9.80;99.90
51982;DHT22;37998;53.416;6.730;2024-03-22T07:40:58;9.80;99.90
51982;DHT22;37998;53.416;6.730;2024-03-22T07:43:24;9.80;99.90
51982;DHT22;37998;53.416;6.730;2024-03-22T07:45:50;9.80;99.90
51982;DHT22;37998;53.416;6.730;2024-03-22T07:48:18;9.80;99.90
51982;DHT22;37998;53.416;6.730;2024-03-22T07:50:44;10.80;99.90
51982;DHT22;37998;53.416;6.730;2024-03-22T07:53:10;9.80;99.90
51982;DHT22;37998;53.416;6.730;2024-03-22T07:55:39;9.80;99.90
51982;DHT22;37998;53.416;6.730;2024-03-22T07:58:09;9.80;99.90
51982;DHT22;37998;53.416;6.730;2024-03-22T08:00:34;9.80;99.90
51982;DHT22;37998;53.416;6.730;2024-03-22T08:03:00;9.80;99.90
51982;DHT22;37998;53.416;6.730;2024-03-22T08:05:26;9.90;99.90
51982;DHT22;37998;53.416;6.730;2024-03-22T08:07:52;9.90;99.90
51982;DHT22;37998;53.416;6.730;2024-03-22T08:10:18;9.90;99.90
51982;DHT22;37998;53.416;6.730;2024-03-22T08:12:44;9.90;99.90
51982;DHT22;37998;53.416;6.730;2024-03-22T08:15:10;9.90;99.90
51982;DHT22;37998;53.416;6.730;2024-03-22T08:17:36;9.90;99.90
51982;DHT22;37998;53.416;6.730;2024-03-22T08:20:02;9.90;99.90
51982;DHT22;37998;53.416;6.730;2024-03-22T08:22:33;9.90;99.90
51982;DHT22;37998;53.416;6.730;2024-03-22T08:24:58;9.90;99.90
51982;DHT22;37998;53.416;6.730;2024-03-22T08:27:28;9.90;99.90
51982;DHT22;37998;53.416;6.730;2024-03-22T08:29:53;9.90;99.90
51982;DHT22;37998;53.416;6.730;2024-03-22T08:32:19;9.90;99.90
51982;DHT22;37998;53.416;6.730;2024-03-22T08:34:46;9.90;99.90
51982;DHT22;37998;53.416;6.730;2024-03-22T08:37:12;9.90;99.90
51982;DHT22;37998;53.416;6.730;2024-03-22T08:39:41;9.90;99.90
51982;DHT22;37998;53.416;6.730;2024-03-22T08:42:11;9.90;99.90
51982;DHT22;37998;53.416;6.730;2024-03-22T08:44:36;9.90;99.90
51982;DHT22;37998;53.416;6.730;2024-03-22T08:47:02;10.00;99.90
51982;DHT22;37998;53.416;6.730;2024-03-22T08:49:28;10.00;99.90
51982;DHT22;37998;53.416;6.730;2024-03-22T08:51:55;10.00;99.90
51982;DHT22;37998;53.416;6.730;2024-03-22T08:54:21;9.90;99.90
51982;DHT22;37998;53.416;6.730;2024-03-22T08:56:47;10.00;99.90
51982;DHT22;37998;53.416;6.730;2024-03-22T08:59:13;10.00;99.90
51982;DHT22;37998;53.416;6.730;2024-03-22T09:01:39;10.00;99.90
51982;DHT22;37998;53.416;6.730;2024-03-22T09:04:08;10.00;99.90
51982;DHT22;37998;53.416;6.730;2024-03-22T09:06:34;9.90;99.90
51982;DHT22;37998;53.416;6.730;2024-03-22T09:09:00;9.90;99.90
51982;DHT22;37998;53.416;6.730;2024-03-22T09:11:27;9.90;99.90
51982;DHT22;37998;53.416;6.730;2024-03-22T09:13:53;9.90;99.90
51982;DHT22;37998;53.416;6.730;2024-03-22T09:16:20;9.90;99.90
51982;DHT22;37998;53.416;6.730;2024-03-22T09:18:46;9.90;99.90
51982;DHT22;37998;53.416;6.730;2024-03-22T09:21:12;9.90;99.90
51982;DHT22;37998;53.416;6.730;2024-03-22T09:23:38;9.90;99.90
51982;DHT22;37998;53.416;6.730;2024-03-22T09:26:04;10.00;99.90
51982;DHT22;37998;53.416;6.730;2024-03-22T09:28:32;10.00;99.90
51982;DHT22;37998;53.416;6.730;2024-03-22T09:30:58;10.00;99.90
51982;DHT22;37998;53.416;6.730;2024-03-22T09:33:24;9.90;99.90
51982;DHT22;37998;53.416;6.730;2024-03-22T09:35:50;10.00;99.90
51982;DHT22;37998;53.416;6.730;2024-03-22T09:38:16;10.00;99.90
51982;DHT22;37998;53.416;6.730;2024-03-22T09:40:43;10.00;99.90
51982;DHT22;37998;53.416;6.730;2024-03-22T09:43:09;10.00;99.90
51982;DHT22;37998;53.416;6.730;2024-03-22T09:45:39;10.00;99.90
51982;DHT22;37998;53.416;6.730;2024-03-22T09:48:06;10.00;99.90
51982;DHT22;37998;53.416;6.730;2024-03-22T09:50:32;10.00;99.90
51982;DHT22;37998;53.416;6.730;2024-03-22T09:52:59;10.00;99.90
51982;DHT22;37998;53.416;6.730;2024-03-22T09:55:26;10.00;99.90
51982;DHT22;37998;53.416;6.730;2024-03-22T09:57:55;10.00;99.90
51982;DHT22;37998;53.416;6.730;2024-03-22T10:00:22;10.00;99.90
51982;DHT22;37998;53.416;6.730;2024-03-22T10:02:51;10.00;99.90
51982;DHT22;37998;53.416;6.730;2024-03-22T10:05:20;10.00;99.90
51982;DHT22;37998;53.416;6.730;2024-03-22T10:07:46;10.00;99.90
51982;DHT22;37998;53.416;6.730;2024-03-22T10:10:12;10.10;99.90
51982;DHT22;37998;53.416;6.730;2024-03-22T10:12:39;10.00;99.90
51982;DHT22;37998;53.416;6.730;2024-03-22T10:15:11;10.00;99.90
51982;DHT22;37998;53.416;6.730;2024-03-22T10:17:39;10.10;99.90
51982;DHT22;37998;53.416;6.730;2024-03-22T10:20:06;10.10;99.90
51982;DHT22;37998;53.416;6.730;2024-03-22T10:22:58;10.10;99.90
51982;DHT22;37998;53.416;6.730;2024-03-22T10:25:26;10.10;99.90
51982;DHT22;37998;53.416;6.730;2024-03-22T10:27:54;10.10;99.90
51982;DHT22;37998;53.416;6.730;2024-03-22T10:30:21;10.10;99.90
51982;DHT22;37998;53.416;6.730;2024-03-22T10:32:50;10.10;99.90
51982;DHT22;37998;53.416;6.730;2024-03-22T10:35:16;10.10;99.90
51982;DHT22;37998;53.416;6.730;2024-03-22T10:37:43;10.00;99.90
51982;DHT22;37998;53.416;6.730;2024-03-22T10:40:09;10.00;99.90
51982;DHT22;37998;53.416;6.730;2024-03-22T10:42:36;10.10;99.90
51982;DHT22;37998;53.416;6.730;2024-03-22T10:45:07;10.00;99.90
51982;DHT22;37998;53.416;6.730;2024-03-22T10:47:35;10.00;99.90
51982;DHT22;37998;53.416;6.730;2024-03-22T10:50:03;10.10;99.90
51982;DHT22;37998;53.416;6.730;2024-03-22T10:52:39;10.10;99.90
51982;DHT22;37998;53.416;6.730;2024-03-22T10:55:08;10.10;99.90
51982;DHT22;37998;53.416;6.730;2024-03-22T10:57:36;10.00;99.90
51982;DHT22;37998;53.416;6.730;2024-03-22T11:00:10;10.00;99.90
51982;DHT22;37998;53.416;6.730;2024-03-22T11:02:36;10.10;99.90
51982;DHT22;37998;53.416;6.730;2024-03-22T11:05:04;10.00;99.90
51982;DHT22;37998;53.416;6.730;2024-03-22T11:07:31;10.10;99.90
51982;DHT22;37998;53.416;6.730;2024-03-22T11:09:58;10.10;99.90
51982;DHT22;37998;53.416;6.730;2024-03-22T11:12:27;10.10;99.90
51982;DHT22;37998;53.416;6.730;2024-03-22T11:14:55;10.10;99.90
51982;DHT22;37998;53.416;6.730;2024-03-22T11:17:21;10.10;99.90
51982;DHT22;37998;53.416;6.730;2024-03-22T11:19:51;10.10;99.90
51982;DHT22;37998;53.416;6.730;2024-03-22T11:22:18;10.10;99.90
51982;DHT22;37998;53.416;6.730;2024-03-22T11:24:44;10.00;99.90
51982;DHT22;37998;53.416;6.730;2024-03-22T11:27:11;10.10;99.90
51982;DHT22;37998;53.416;6.730;2024-03-22T11:29:39;10.00;99.90
51982;DHT22;37998;53.416;6.730;2024-03-22T11:32:07;10.00;99.90
51982;DHT22;37998;53.416;6.730;2024-03-22T11:34:35;10.00;99.90
51982;DHT22;37998;53.416;6.730;2024-03-22T11:37:01;10.00;99.90
51982;DHT22;37998;53.416;6.730;2024-03-22T11:39:27;10.00;99.90
51982;DHT22;37998;53.416;6.730;2024-03-22T11:41:57;10.00;99.90
51982;DHT22;37998;53.416;6.730;2024-03-22T11:44:23;10.00;99.90
51982;DHT22;37998;53.416;6.730;2024-03-22T11:46:52;10.00;99.90
51982;DHT22;37998;53.416;6.730;2024-03-22T11:49:23;10.00;99.90
51982;DHT22;37998;53.416;6.730;2024-03-22T11:51:51;10.00;99.90
51982;DHT22;37998;53.416;6.730;2024-03-22T11:54:20;10.10;99.90
51982;DHT22;37998;53.416;6.730;2024-03-22T11:56:46;10.10;99.90
51982;DHT22;37998;53.416;6.730;2024-03-22T11:59:13;10.10;99.90
51982;DHT22;37998;53.416;6.730;2024-03-22T12:01:40;10.20;99.90
51982;DHT22;37998;53.416;6.730;2024-03-22T12:04:09;10.20;99.90
51982;DHT22;37998;53.416;6.730;2024-03-22T12:06:44;10.20;99.90
51982;DHT22;37998;53.416;6.730;2024-03-22T12:09:11;10.30;99.90
51982;DHT22;37998;53.416;6.730;2024-03-22T12:11:40;10.30;99.90
51982;DHT22;37998;53.416;6.730;2024-03-22T12:14:06;10.30;99.90
51982;DHT22;37998;53.416;6.730;2024-03-22T12:16:32;10.30;99.90
51982;DHT22;37998;53.416;6.730;2024-03-22T12:18:58;10.30;99.90
51982;DHT22;37998;53.416;6.730;2024-03-22T12:21:25;10.30;99.90
51982;DHT22;37998;53.416;6.730;2024-03-22T12:23:51;10.40;99.90
51982;DHT22;37998;53.416;6.730;2024-03-22T12:26:19;10.40;99.90
51982;DHT22;37998;53.416;6.730;2024-03-22T12:28:45;10.40;99.90
51982;DHT22;37998;53.416;6.730;2024-03-22T12:31:12;10.40;99.90
51982;DHT22;37998;53.416;6.730;2024-03-22T12:33:40;10.40;99.90
51982;DHT22;37998;53.416;6.730;2024-03-22T12:36:06;10.40;99.90
51982;DHT22;37998;53.416;6.730;2024-03-22T12:38:32;10.50;99.90
51982;DHT22;37998;53.416;6.730;2024-03-22T12:40:58;10.50;99.90
51982;DHT22;37998;53.416;6.730;2024-03-22T12:43:24;10.60;99.90
51982;DHT22;37998;53.416;6.730;2024-03-22T12:45:50;10.60;99.90
51982;DHT22;37998;53.416;6.730;2024-03-22T12:48:16;10.60;99.90
51982;DHT22;37998;53.416;6.730;2024-03-22T12:50:42;10.60;99.90
51982;DHT22;37998;53.416;6.730;2024-03-22T12:53:08;10.70;99.90
51982;DHT22;37998;53.416;6.730;2024-03-22T12:55:34;10.70;99.90
51982;DHT22;37998;53.416;6.730;2024-03-22T12:57:59;10.70;99.90
51982;DHT22;37998;53.416;6.730;2024-03-22T13:00:25;10.70;99.90
51982;DHT22;37998;53.416;6.730;2024-03-22T13:02:51;10.80;99.90
51982;DHT22;37998;53.416;6.730;2024-03-22T13:05:18;10.70;99.90
51982;DHT22;37998;53.416;6.730;2024-03-22T13:07:44;10.70;99.90
51982;DHT22;37998;53.416;6.730;2024-03-22T13:10:10;10.80;99.90
51982;DHT22;37998;53.416;6.730;2024-03-22T13:12:36;10.80;99.90
51982;DHT22;37998;53.416;6.730;2024-03-22T13:15:02;10.80;99.90
51982;DHT22;37998;53.416;6.730;2024-03-22T13:17:30;10.70;99.90
51982;DHT22;37998;53.416;6.730;2024-03-22T13:20:01;10.70;99.90
51982;DHT22;37998;53.416;6.730;2024-03-22T13:22:28;10.70;99.90
51982;DHT22;37998;53.416;6.730;2024-03-22T13:24:55;10.60;99.90
51982;DHT22;37998;53.416;6.730;2024-03-22T13:27:21;10.60;99.90
51982;DHT22;37998;53.416;6.730;2024-03-22T13:29:50;10.60;99.90
51982;DHT22;37998;53.416;6.730;2024-03-22T13:32:17;10.50;99.90
51982;DHT22;37998;53.416;6.730;2024-03-22T13:34:46;10.50;99.90
51982;DHT22;37998;53.416;6.730;2024-03-22T13:37:11;10.40;99.90
51982;DHT22;37998;53.416;6.730;2024-03-22T13:39:37;10.30;99.90
51982;DHT22;37998;53.416;6.730;2024-03-22T13:42:03;10.20;99.90
51982;DHT22;37998;53.416;6.730;2024-03-22T13:44:32;10.20;99.90
51982;DHT22;37998;53.416;6.730;2024-03-22T13:46:58;10.20;99.90
51982;DHT22;37998;53.416;6.730;2024-03-22T13:49:24;10.20;99.90
51982;DHT22;37998;53.416;6.730;2024-03-22T13:51:50;10.20;99.90
51982;DHT22;37998;53.416;6.730;2024-03-22T13:54:16;10.20;99.90
51982;DHT22;37998;53.416;6.730;2024-03-22T13:56:42;10.10;99.90
51982;DHT22;37998;53.416;6.730;2024-03-22T13:59:09;10.20;99.90
51982;DHT22;37998;53.416;6.730;2024-03-22T14:01:36;10.20;99.90
51982;DHT22;37998;53.416;6.730;2024-03-22T14:04:04;10.30;99.90
51982;DHT22;37998;53.416;6.730;2024-03-22T14:06:31;10.30;99.90
51982;DHT22;37998;53.416;6.730;2024-03-22T14:08:58;10.20;99.90
51982;DHT22;37998;53.416;6.730;2024-03-22T14:11:28;10.20;99.90
51982;DHT22;37998;53.416;6.730;2024-03-22T14:13:59;10.20;99.90
51982;DHT22;37998;53.416;6.730;2024-03-22T14:16:25;10.20;99.90
51982;DHT22;37998;53.416;6.730;2024-03-22T14:18:51;10.30;99.90
51982;DHT22;37998;53.416;6.730;2024-03-22T14:21:19;10.30;99.90
51982;DHT22;37998;53.416;6.730;2024-03-22T14:23:49;10.30;99.90
51982;DHT22;37998;53.416;6.730;2024-03-22T14:26:16;10.30;99.90
51982;DHT22;37998;53.416;6.730;2024-03-22T14:28:42;10.30;99.90
51982;DHT22;37998;53.416;6.730;2024-03-22T14:31:10;10.30;99.90
51982;DHT22;37998;53.416;6.730;2024-03-22T14:33:36;10.40;99.90
51982;DHT22;37998;53.416;6.730;2024-03-22T14:36:06;10.40;99.90
51982;DHT22;37998;53.416;6.730;2024-03-22T14:38:33;10.30;99.90
51982;DHT22;37998;53.416;6.730;2024-03-22T14:40:59;10.30;99.90
51982;DHT22;37998;53.416;6.730;2024-03-22T14:43:26;10.30;99.90
51982;DHT22;37998;53.416;6.730;2024-03-22T14:45:55;10.30;99.90
51982;DHT22;37998;53.416;6.730;2024-03-22T14:48:22;10.30;99.90
51982;DHT22;37998;53.416;6.730;2024-03-22T14:50:49;10.20;99.90
51982;DHT22;37998;53.416;6.730;2024-03-22T14:53:16;10.20;99.90
51982;DHT22;37998;53.416;6.730;2024-03-22T14:55:57;10.20;99.90
51982;DHT22;37998;53.416;6.730;2024-03-22T14:58:25;10.20;99.90
51982;DHT22;37998;53.416;6.730;2024-03-22T15:00:56;10.10;99.90
51982;DHT22;37998;53.416;6.730;2024-03-22T15:03:22;10.10;99.90
51982;DHT22;37998;53.416;6.730;2024-03-22T15:05:51;10.10;99.90
51982;DHT22;37998;53.416;6.730;2024-03-22T15:08:18;10.00;99.90
51982;DHT22;37998;53.416;6.730;2024-03-22T15:10:44;9.90;99.90
51982;DHT22;37998;53.416;6.730;2024-03-22T15:13:10;9.90;99.90
51982;DHT22;37998;53.416;6.730;2024-03-22T15:15:37;9.90;99.90
51982;DHT22;37998;53.416;6.730;2024-03-22T15:18:04;9.90;99.90
51982;DHT22;37998;53.416;6.730;2024-03-22T15:20:31;9.90;99.90
51982;DHT22;37998;53.416;6.730;2024-03-22T15:22:58;9.80;99.90
51982;DHT22;37998;53.416;6.730;2024-03-22T15:25:26;9.80;99.90
51982;DHT22;37998;53.416;6.730;2024-03-22T15:27:58;9.80;99.90
51982;DHT22;37998;53.416;6.730;2024-03-22T15:30:24;9.90;99.90
51982;DHT22;37998;53.416;6.730;2024-03-22T15:32:50;9.90;99.90